sensor_id;sensor_type;location;lat;lon;timestamp;P1;durP1;ratioP1;P2;durP2;ratioP2
1765;SDS011;880;52.452;8.656;2023-11-18T00:01:10;12.00;;;9.70;;
1765;SDS011;880;52.452;8.656;2023-11-18T00:03:37;16.27;;;11.07;;
1765;SDS011;880;52.452;8.656;2023-11-18T00:06:04;12.35;;;10.43;;
1765;SDS011;880;52.452;8.656;2023-11-18T00:08:32;14.55;;;11.27;;
1765;SDS011;880;52.452;8.656;2023-11-18T00:10:59;11.13;;;9.95;;
1765;SDS011;880;52.452;8.656;2023-11-18T00:13:26;15.25;;;10.45;;
1765;SDS011;880;52.452;8.656;2023-11-18T00:15:54;13.80;;;10.40;;
1765;SDS011;880;52.452;8.656;2023-11-18T00:18:21;13.43;;;12.02;;
1765;SDS011;880;52.452;8.656;2023-11-18T00:20:48;13.63;;;8.43;;
1765;SDS011;880;52.452;8.656;2023-11-18T00:23:17;10.13;;;8.27;;
1765;SDS011;880;52.452;8.656;2023-11-18T00:25:47;10.90;;;9.20;;
1765;SDS011;880;52.452;8.656;2023-11-18T00:28:14;12.38;;;9.55;;
1765;SDS011;880;52.452;8.656;2023-11-18T00:30:41;13.15;;;10.40;;
1765;SDS011;880;52.452;8.656;2023-11-18T00:33:08;11.15;;;9.13;;
1765;SDS011;880;52.452;8.656;2023-11-18T00:35:35;11.48;;;10.40;;
1765;SDS011;880;52.452;8.656;2023-11-18T00:38:02;16.10;;;10.60;;
1765;SDS011;880;52.452;8.656;2023-11-18T00:40:30;11.88;;;9.00;;
1765;SDS011;880;52.452;8.656;2023-11-18T00:42:58;13.05;;;10.18;;
1765;SDS011;880;52.452;8.656;2023-11-18T00:45:26;17.08;;;9.70;;
1765;SDS011;880;52.452;8.656;2023-11-18T00:47:57;15.80;;;10.07;;
1765;SDS011;880;52.452;8.656;2023-11-18T00:50:24;15.75;;;10.52;;
1765;SDS011;880;52.452;8.656;2023-11-18T00:52:51;14.77;;;10.90;;
1765;SDS011;880;52.452;8.656;2023-11-18T00:55:18;12.95;;;10.80;;
1765;SDS011;880;52.452;8.656;2023-11-18T00:57:46;13.25;;;9.95;;
1765;SDS011;880;52.452;8.656;2023-11-18T01:00:14;11.80;;;8.98;;
1765;SDS011;880;52.452;8.656;2023-11-18T01:02:48;15.80;;;10.68;;
1765;SDS011;880;52.452;8.656;2023-11-18T01:05:16;15.98;;;10.15;;
1765;SDS011;880;52.452;8.656;2023-11-18T01:07:43;17.98;;;10.18;;
1765;SDS011;880;52.452;8.656;2023-11-18T01:10:10;11.88;;;10.02;;
1765;SDS011;880;52.452;8.656;2023-11-18T01:12:40;12.82;;;9.73;;
1765;SDS011;880;52.452;8.656;2023-11-18T01:15:08;16.75;;;9.95;;
1765;SDS011;880;52.452;8.656;2023-11-18T01:17:37;14.70;;;10.07;;
1765;SDS011;880;52.452;8.656;2023-11-18T01:20:05;16.48;;;9.93;;
1765;SDS011;880;52.452;8.656;2023-11-18T01:22:37;12.93;;;11.18;;
1765;SDS011;880;52.452;8.656;2023-11-18T01:25:06;18.00;;;11.10;;
1765;SDS011;880;52.452;8.656;2023-11-18T01:27:34;20.73;;;10.95;;
1765;SDS011;880;52.452;8.656;2023-11-18T01:30:02;13.52;;;10.25;;
1765;SDS011;880;52.452;8.656;2023-11-18T01:32:30;16.23;;;9.90;;
1765;SDS011;880;52.452;8.656;2023-11-18T01:34:58;15.85;;;10.80;;
1765;SDS011;880;52.452;8.656;2023-11-18T01:37:25;15.85;;;10.57;;
1765;SDS011;880;52.452;8.656;2023-11-18T01:39:53;15.63;;;9.48;;
1765;SDS011;880;52.452;8.656;2023-11-18T01:42:21;19.13;;;14.00;;
1765;SDS011;880;52.452;8.656;2023-11-18T01:44:48;18.40;;;11.02;;
1765;SDS011;880;52.452;8.656;2023-11-18T01:47:15;13.68;;;8.93;;
1765;SDS011;880;52.452;8.656;2023-11-18T01:49:43;18.63;;;11.15;;
1765;SDS011;880;52.452;8.656;2023-11-18T01:52:11;19.33;;;11.27;;
1765;SDS011;880;52.452;8.656;2023-11-18T01:54:39;17.42;;;10.98;;
1765;SDS011;880;52.452;8.656;2023-11-18T01:57:06;18.23;;;9.93;;
1765;SDS011;880;52.452;8.656;2023-11-18T01:59:36;14.10;;;10.00;;
1765;SDS011;880;52.452;8.656;2023-11-18T02:02:08;22.70;;;11.82;;
1765;SDS011;880;52.452;8.656;2023-11-18T02:04:35;22.00;;;11.73;;
1765;SDS011;880;52.452;8.656;2023-11-18T02:07:03;17.90;;;10.65;;
1765;SDS011;880;52.452;8.656;2023-11-18T02:09:35;15.65;;;10.45;;
1765;SDS011;880;52.452;8.656;2023-11-18T02:12:08;15.88;;;12.00;;
1765;SDS011;880;52.452;8.656;2023-11-18T02:15:02;20.05;;;11.13;;
1765;SDS011;880;52.452;8.656;2023-11-18T02:17:37;15.40;;;10.35;;
1765;SDS011;880;52.452;8.656;2023-11-18T02:20:06;20.75;;;10.93;;
1765;SDS011;880;52.452;8.656;2023-11-18T02:22:45;17.33;;;10.48;;
1765;SDS011;880;52.452;8.656;2023-11-18T02:25:16;15.57;;;10.80;;
1765;SDS011;880;52.452;8.656;2023-11-18T02:27:45;16.67;;;11.00;;
1765;SDS011;880;52.452;8.656;2023-11-18T02:30:16;18.80;;;10.32;;
1765;SDS011;880;52.452;8.656;2023-11-18T02:35:28;21.15;;;10.25;;
1765;SDS011;880;52.452;8.656;2023-11-18T02:38:01;13.13;;;9.95;;
1765;SDS011;880;52.452;8.656;2023-11-18T02:45:35;18.98;;;12.00;;
1765;SDS011;880;52.452;8.656;2023-11-18T02:48:04;14.57;;;10.10;;
1765;SDS011;880;52.452;8.656;2023-11-18T02:50:34;24.63;;;11.20;;
1765;SDS011;880;52.452;8.656;2023-11-18T02:53:03;16.85;;;10.25;;
1765;SDS011;880;52.452;8.656;2023-11-18T02:55:30;16.52;;;9.60;;
1765;SDS011;880;52.452;8.656;2023-11-18T02:57:57;21.92;;;11.48;;
1765;SDS011;880;52.452;8.656;2023-11-18T03:00:24;18.75;;;10.70;;
1765;SDS011;880;52.452;8.656;2023-11-18T03:02:51;21.23;;;11.20;;
1765;SDS011;880;52.452;8.656;2023-11-18T03:05:19;19.27;;;10.57;;
1765;SDS011;880;52.452;8.656;2023-11-18T03:07:47;17.92;;;9.75;;
1765;SDS011;880;52.452;8.656;2023-11-18T03:10:21;15.70;;;10.48;;
1765;SDS011;880;52.452;8.656;2023-11-18T03:12:49;20.73;;;10.85;;
1765;SDS011;880;52.452;8.656;2023-11-18T03:15:19;16.80;;;11.27;;
1765;SDS011;880;52.452;8.656;2023-11-18T03:17:48;21.60;;;13.30;;
1765;SDS011;880;52.452;8.656;2023-11-18T03:20:17;23.85;;;11.00;;
1765;SDS011;880;52.452;8.656;2023-11-18T03:22:46;19.75;;;10.70;;
1765;SDS011;880;52.452;8.656;2023-11-18T03:25:14;20.67;;;10.23;;
1765;SDS011;880;52.452;8.656;2023-11-18T03:27:42;16.48;;;9.60;;
1765;SDS011;880;52.452;8.656;2023-11-18T03:30:10;23.40;;;9.98;;
1765;SDS011;880;52.452;8.656;2023-11-18T03:32:39;19.25;;;11.63;;
1765;SDS011;880;52.452;8.656;2023-11-18T03:35:06;15.65;;;9.30;;
1765;SDS011;880;52.452;8.656;2023-11-18T03:37:39;18.75;;;10.77;;
1765;SDS011;880;52.452;8.656;2023-11-18T03:40:13;12.45;;;9.82;;
1765;SDS011;880;52.452;8.656;2023-11-18T03:42:41;12.40;;;9.35;;
1765;SDS011;880;52.452;8.656;2023-11-18T03:45:09;16.77;;;9.75;;
1765;SDS011;880;52.452;8.656;2023-11-18T03:47:37;14.52;;;9.05;;
1765;SDS011;880;52.452;8.656;2023-11-18T03:50:04;15.90;;;11.00;;
1765;SDS011;880;52.452;8.656;2023-11-18T03:55:04;22.63;;;10.65;;
1765;SDS011;880;52.452;8.656;2023-11-18T03:57:32;16.00;;;7.75;;
1765;SDS011;880;52.452;8.656;2023-11-18T03:59:59;17.95;;;9.80;;
1765;SDS011;880;52.452;8.656;2023-11-18T04:02:26;14.35;;;9.30;;
1765;SDS011;880;52.452;8.656;2023-11-18T04:04:55;14.25;;;8.63;;
1765;SDS011;880;52.452;8.656;2023-11-18T04:07:22;16.40;;;9.70;;
1765;SDS011;880;52.452;8.656;2023-11-18T04:09:49;19.63;;;9.70;;
1765;SDS011;880;52.452;8.656;2023-11-18T04:12:16;12.82;;;9.13;;
1765;SDS011;880;52.452;8.656;2023-11-18T04:14:43;17.55;;;9.10;;
1765;SDS011;880;52.452;8.656;2023-11-18T04:17:10;17.30;;;9.68;;
1765;SDS011;880;52.452;8.656;2023-11-18T04:19:38;11.80;;;7.22;;
1765;SDS011;880;52.452;8.656;2023-11-18T04:22:05;20.10;;;8.95;;
1765;SDS011;880;52.452;8.656;2023-11-18T04:24:32;16.15;;;9.32;;
1765;SDS011;880;52.452;8.656;2023-11-18T04:27:01;18.50;;;9.00;;
1765;SDS011;880;52.452;8.656;2023-11-18T04:29:28;14.52;;;8.52;;
1765;SDS011;880;52.452;8.656;2023-11-18T04:31:56;15.73;;;10.18;;
1765;SDS011;880;52.452;8.656;2023-11-18T04:34:23;17.38;;;10.40;;
1765;SDS011;880;52.452;8.656;2023-11-18T04:36:51;16.27;;;8.88;;
1765;SDS011;880;52.452;8.656;2023-11-18T04:39:18;19.27;;;10.68;;
1765;SDS011;880;52.452;8.656;2023-11-18T04:41:46;22.35;;;9.27;;
1765;SDS011;880;52.452;8.656;2023-11-18T04:44:13;20.45;;;10.30;;
1765;SDS011;880;52.452;8.656;2023-11-18T04:46:42;23.45;;;9.25;;
1765;SDS011;880;52.452;8.656;2023-11-18T04:49:10;11.32;;;8.63;;
1765;SDS011;880;52.452;8.656;2023-11-18T04:51:38;15.85;;;9.43;;
1765;SDS011;880;52.452;8.656;2023-11-18T04:54:05;34.08;;;10.27;;
1765;SDS011;880;52.452;8.656;2023-11-18T04:56:34;20.08;;;8.45;;
1765;SDS011;880;52.452;8.656;2023-11-18T04:59:02;19.67;;;9.23;;
1765;SDS011;880;52.452;8.656;2023-11-18T05:01:31;22.67;;;10.77;;
1765;SDS011;880;52.452;8.656;2023-11-18T05:03:59;22.48;;;10.07;;
1765;SDS011;880;52.452;8.656;2023-11-18T05:06:26;30.42;;;10.73;;
1765;SDS011;880;52.452;8.656;2023-11-18T05:08:53;33.70;;;10.27;;
1765;SDS011;880;52.452;8.656;2023-11-18T05:11:20;17.25;;;9.15;;
1765;SDS011;880;52.452;8.656;2023-11-18T05:13:47;16.08;;;8.57;;
1765;SDS011;880;52.452;8.656;2023-11-18T05:16:15;10.70;;;6.32;;
1765;SDS011;880;52.452;8.656;2023-11-18T05:18:42;22.48;;;7.13;;
1765;SDS011;880;52.452;8.656;2023-11-18T05:21:10;30.67;;;9.13;;
1765;SDS011;880;52.452;8.656;2023-11-18T05:23:37;18.02;;;9.32;;
1765;SDS011;880;52.452;8.656;2023-11-18T05:26:04;37.20;;;12.30;;
1765;SDS011;880;52.452;8.656;2023-11-18T05:28:32;19.95;;;10.85;;
1765;SDS011;880;52.452;8.656;2023-11-18T05:30:59;17.58;;;8.75;;
1765;SDS011;880;52.452;8.656;2023-11-18T05:33:31;33.25;;;10.77;;
1765;SDS011;880;52.452;8.656;2023-11-18T05:36:02;27.35;;;10.02;;
1765;SDS011;880;52.452;8.656;2023-11-18T05:38:32;38.22;;;10.27;;
1765;SDS011;880;52.452;8.656;2023-11-18T05:41:01;21.75;;;8.43;;
1765;SDS011;880;52.452;8.656;2023-11-18T05:43:30;52.33;;;11.90;;
1765;SDS011;880;52.452;8.656;2023-11-18T05:46:07;25.40;;;11.27;;
1765;SDS011;880;52.452;8.656;2023-11-18T05:48:42;38.88;;;11.40;;
1765;SDS011;880;52.452;8.656;2023-11-18T05:51:10;27.38;;;8.45;;
1765;SDS011;880;52.452;8.656;2023-11-18T05:53:41;32.95;;;11.35;;
1765;SDS011;880;52.452;8.656;2023-11-18T05:56:15;31.90;;;11.18;;
1765;SDS011;880;52.452;8.656;2023-11-18T05:58:45;31.15;;;13.02;;
1765;SDS011;880;52.452;8.656;2023-11-18T06:01:13;26.27;;;10.50;;
1765;SDS011;880;52.452;8.656;2023-11-18T06:03:43;31.48;;;12.60;;
1765;SDS011;880;52.452;8.656;2023-11-18T06:06:11;27.25;;;10.68;;
1765;SDS011;880;52.452;8.656;2023-11-18T06:11:15;24.63;;;10.85;;
1765;SDS011;880;52.452;8.656;2023-11-18T06:13:43;38.08;;;13.65;;
1765;SDS011;880;52.452;8.656;2023-11-18T06:16:14;30.73;;;12.05;;
1765;SDS011;880;52.452;8.656;2023-11-18T06:18:43;25.20;;;12.18;;
1765;SDS011;880;52.452;8.656;2023-11-18T06:21:11;24.40;;;11.15;;
1765;SDS011;880;52.452;8.656;2023-11-18T06:23:41;32.97;;;12.02;;
1765;SDS011;880;52.452;8.656;2023-11-18T06:26:09;26.42;;;11.60;;
1765;SDS011;880;52.452;8.656;2023-11-18T06:28:38;29.77;;;11.77;;
1765;SDS011;880;52.452;8.656;2023-11-18T06:31:08;24.13;;;11.80;;
1765;SDS011;880;52.452;8.656;2023-11-18T06:33:36;18.67;;;11.52;;
1765;SDS011;880;52.452;8.656;2023-11-18T06:38:40;26.52;;;13.27;;
1765;SDS011;880;52.452;8.656;2023-11-18T06:41:08;24.67;;;11.30;;
1765;SDS011;880;52.452;8.656;2023-11-18T06:43:37;25.30;;;10.52;;
1765;SDS011;880;52.452;8.656;2023-11-18T06:46:19;45.17;;;10.10;;
1765;SDS011;880;52.452;8.656;2023-11-18T06:48:55;26.92;;;11.80;;
1765;SDS011;880;52.452;8.656;2023-11-18T06:51:24;29.85;;;14.15;;
1765;SDS011;880;52.452;8.656;2023-11-18T06:53:54;25.50;;;11.35;;
1765;SDS011;880;52.452;8.656;2023-11-18T06:56:22;24.17;;;11.20;;
1765;SDS011;880;52.452;8.656;2023-11-18T06:58:50;23.88;;;10.60;;
1765;SDS011;880;52.452;8.656;2023-11-18T07:01:18;16.20;;;9.80;;
1765;SDS011;880;52.452;8.656;2023-11-18T07:03:46;24.90;;;12.27;;
1765;SDS011;880;52.452;8.656;2023-11-18T07:06:20;24.23;;;11.85;;
1765;SDS011;880;52.452;8.656;2023-11-18T07:08:53;33.30;;;12.02;;
1765;SDS011;880;52.452;8.656;2023-11-18T07:11:26;24.83;;;12.50;;
1765;SDS011;880;52.452;8.656;2023-11-18T07:13:59;31.13;;;13.30;;
1765;SDS011;880;52.452;8.656;2023-11-18T07:16:26;27.67;;;11.73;;
1765;SDS011;880;52.452;8.656;2023-11-18T07:18:54;26.55;;;11.60;;
1765;SDS011;880;52.452;8.656;2023-11-18T07:21:21;34.90;;;13.85;;
1765;SDS011;880;52.452;8.656;2023-11-18T07:23:48;28.60;;;12.90;;
1765;SDS011;880;52.452;8.656;2023-11-18T07:26:15;23.27;;;13.23;;
1765;SDS011;880;52.452;8.656;2023-11-18T07:28:42;25.83;;;12.38;;
1765;SDS011;880;52.452;8.656;2023-11-18T07:31:11;32.15;;;13.30;;
1765;SDS011;880;52.452;8.656;2023-11-18T07:33:38;29.25;;;13.68;;
1765;SDS011;880;52.452;8.656;2023-11-18T07:36:09;28.50;;;12.20;;
1765;SDS011;880;52.452;8.656;2023-11-18T07:38:37;33.42;;;14.07;;
1765;SDS011;880;52.452;8.656;2023-11-18T07:41:05;25.27;;;12.32;;
1765;SDS011;880;52.452;8.656;2023-11-18T07:43:34;31.20;;;14.25;;
1765;SDS011;880;52.452;8.656;2023-11-18T07:46:06;35.75;;;16.23;;
1765;SDS011;880;52.452;8.656;2023-11-18T07:48:34;31.10;;;13.40;;
1765;SDS011;880;52.452;8.656;2023-11-18T07:51:01;27.02;;;12.18;;
1765;SDS011;880;52.452;8.656;2023-11-18T07:53:29;32.75;;;14.18;;
1765;SDS011;880;52.452;8.656;2023-11-18T07:55:57;24.65;;;13.23;;
1765;SDS011;880;52.452;8.656;2023-11-18T07:58:24;31.80;;;13.27;;
1765;SDS011;880;52.452;8.656;2023-11-18T08:00:53;44.15;;;14.65;;
1765;SDS011;880;52.452;8.656;2023-11-18T08:03:21;43.70;;;15.95;;
1765;SDS011;880;52.452;8.656;2023-11-18T08:05:48;34.28;;;15.30;;
1765;SDS011;880;52.452;8.656;2023-11-18T08:08:17;36.03;;;15.23;;
1765;SDS011;880;52.452;8.656;2023-11-18T08:10:44;33.33;;;17.27;;
1765;SDS011;880;52.452;8.656;2023-11-18T08:13:11;35.80;;;16.52;;
1765;SDS011;880;52.452;8.656;2023-11-18T08:15:40;29.95;;;14.95;;
1765;SDS011;880;52.452;8.656;2023-11-18T08:18:08;34.13;;;16.60;;
1765;SDS011;880;52.452;8.656;2023-11-18T08:20:38;38.10;;;15.02;;
1765;SDS011;880;52.452;8.656;2023-11-18T08:23:07;36.60;;;16.50;;
1765;SDS011;880;52.452;8.656;2023-11-18T08:25:35;28.90;;;13.65;;
1765;SDS011;880;52.452;8.656;2023-11-18T08:28:03;28.27;;;14.98;;
1765;SDS011;880;52.452;8.656;2023-11-18T08:30:31;28.95;;;15.15;;
1765;SDS011;880;52.452;8.656;2023-11-18T08:33:00;36.60;;;15.38;;
1765;SDS011;880;52.452;8.656;2023-11-18T08:35:31;28.88;;;14.77;;
1765;SDS011;880;52.452;8.656;2023-11-18T08:37:58;30.38;;;15.70;;
1765;SDS011;880;52.452;8.656;2023-11-18T08:40:27;36.85;;;15.73;;
1765;SDS011;880;52.452;8.656;2023-11-18T08:42:54;36.97;;;14.48;;
1765;SDS011;880;52.452;8.656;2023-11-18T08:45:23;48.80;;;17.00;;
1765;SDS011;880;52.452;8.656;2023-11-18T08:47:55;31.13;;;15.25;;
1765;SDS011;880;52.452;8.656;2023-11-18T08:50:23;31.30;;;15.88;;
1765;SDS011;880;52.452;8.656;2023-11-18T08:52:52;37.40;;;16.85;;
1765;SDS011;880;52.452;8.656;2023-11-18T08:55:25;35.38;;;16.67;;
1765;SDS011;880;52.452;8.656;2023-11-18T08:58:09;35.63;;;14.77;;
1765;SDS011;880;52.452;8.656;2023-11-18T09:00:42;46.42;;;17.08;;
1765;SDS011;880;52.452;8.656;2023-11-18T09:05:58;31.00;;;15.85;;
1765;SDS011;880;52.452;8.656;2023-11-18T09:08:33;45.20;;;16.50;;
1765;SDS011;880;52.452;8.656;2023-11-18T09:11:05;44.72;;;17.08;;
1765;SDS011;880;52.452;8.656;2023-11-18T09:13:42;40.53;;;17.65;;
1765;SDS011;880;52.452;8.656;2023-11-18T09:16:11;34.83;;;16.83;;
1765;SDS011;880;52.452;8.656;2023-11-18T09:18:39;42.92;;;21.52;;
1765;SDS011;880;52.452;8.656;2023-11-18T09:21:09;34.40;;;16.98;;
1765;SDS011;880;52.452;8.656;2023-11-18T09:23:49;34.50;;;17.02;;
1765;SDS011;880;52.452;8.656;2023-11-18T09:26:16;54.25;;;19.02;;
1765;SDS011;880;52.452;8.656;2023-11-18T09:28:44;42.55;;;16.65;;
1765;SDS011;880;52.452;8.656;2023-11-18T09:31:11;37.20;;;17.58;;
1765;SDS011;880;52.452;8.656;2023-11-18T09:33:39;36.58;;;19.45;;
1765;SDS011;880;52.452;8.656;2023-11-18T09:36:13;43.30;;;17.17;;
1765;SDS011;880;52.452;8.656;2023-11-18T09:38:40;39.00;;;19.08;;
1765;SDS011;880;52.452;8.656;2023-11-18T09:41:09;40.58;;;18.63;;
1765;SDS011;880;52.452;8.656;2023-11-18T09:43:38;31.58;;;17.85;;
1765;SDS011;880;52.452;8.656;2023-11-18T09:51:28;30.02;;;17.13;;
1765;SDS011;880;52.452;8.656;2023-11-18T09:54:04;26.50;;;16.55;;
1765;SDS011;880;52.452;8.656;2023-11-18T10:02:24;21.65;;;14.45;;
1765;SDS011;880;52.452;8.656;2023-11-18T10:04:55;26.00;;;16.13;;
1765;SDS011;880;52.452;8.656;2023-11-18T10:07:24;20.20;;;14.57;;
1765;SDS011;880;52.452;8.656;2023-11-18T10:09:59;28.13;;;14.85;;
1765;SDS011;880;52.452;8.656;2023-11-18T10:12:28;26.17;;;15.18;;
1765;SDS011;880;52.452;8.656;2023-11-18T10:14:56;22.80;;;14.35;;
1765;SDS011;880;52.452;8.656;2023-11-18T10:17:24;24.95;;;14.55;;
1765;SDS011;880;52.452;8.656;2023-11-18T10:19:53;26.35;;;14.07;;
1765;SDS011;880;52.452;8.656;2023-11-18T10:22:38;26.83;;;14.57;;
1765;SDS011;880;52.452;8.656;2023-11-18T10:25:07;30.95;;;15.25;;
1765;SDS011;880;52.452;8.656;2023-11-18T10:27:34;22.35;;;13.20;;
1765;SDS011;880;52.452;8.656;2023-11-18T10:30:02;16.67;;;11.55;;
1765;SDS011;880;52.452;8.656;2023-11-18T10:32:31;20.50;;;12.77;;
1765;SDS011;880;52.452;8.656;2023-11-18T10:35:03;18.67;;;13.77;;
1765;SDS011;880;52.452;8.656;2023-11-18T10:37:36;19.45;;;11.82;;
1765;SDS011;880;52.452;8.656;2023-11-18T10:40:10;13.57;;;11.65;;
1765;SDS011;880;52.452;8.656;2023-11-18T10:42:41;19.83;;;11.70;;
1765;SDS011;880;52.452;8.656;2023-11-18T10:45:13;12.27;;;11.18;;
1765;SDS011;880;52.452;8.656;2023-11-18T10:47:51;17.48;;;11.10;;
1765;SDS011;880;52.452;8.656;2023-11-18T10:50:22;15.23;;;11.88;;
1765;SDS011;880;52.452;8.656;2023-11-18T10:52:49;17.00;;;12.02;;
1765;SDS011;880;52.452;8.656;2023-11-18T10:55:17;13.05;;;11.77;;
1765;SDS011;880;52.452;8.656;2023-11-18T10:57:45;13.85;;;10.27;;
1765;SDS011;880;52.452;8.656;2023-11-18T11:00:12;17.60;;;10.25;;
1765;SDS011;880;52.452;8.656;2023-11-18T11:02:41;12.70;;;10.35;;
1765;SDS011;880;52.452;8.656;2023-11-18T11:05:08;14.35;;;12.75;;
1765;SDS011;880;52.452;8.656;2023-11-18T11:07:47;12.73;;;10.43;;
1765;SDS011;880;52.452;8.656;2023-11-18T11:10:16;11.57;;;10.50;;
1765;SDS011;880;52.452;8.656;2023-11-18T11:12:47;12.73;;;11.02;;
1765;SDS011;880;52.452;8.656;2023-11-18T11:15:22;14.40;;;11.43;;
1765;SDS011;880;52.452;8.656;2023-11-18T11:18:14;13.43;;;11.07;;
1765;SDS011;880;52.452;8.656;2023-11-18T11:20:57;11.93;;;10.73;;
1765;SDS011;880;52.452;8.656;2023-11-18T11:26:18;12.70;;;11.20;;
1765;SDS011;880;52.452;8.656;2023-11-18T11:29:24;12.20;;;10.45;;
1765;SDS011;880;52.452;8.656;2023-11-18T11:32:47;12.77;;;10.00;;
1765;SDS011;880;52.452;8.656;2023-11-18T11:35:30;14.32;;;10.90;;
1765;SDS011;880;52.452;8.656;2023-11-18T11:38:00;12.65;;;11.30;;
1765;SDS011;880;52.452;8.656;2023-11-18T11:40:36;13.68;;;9.50;;
1765;SDS011;880;52.452;8.656;2023-11-18T11:43:05;13.52;;;10.25;;
1765;SDS011;880;52.452;8.656;2023-11-18T11:45:37;11.52;;;10.38;;
1765;SDS011;880;52.452;8.656;2023-11-18T11:48:06;12.05;;;9.23;;
1765;SDS011;880;52.452;8.656;2023-11-18T11:50:44;13.27;;;9.27;;
1765;SDS011;880;52.452;8.656;2023-11-18T11:53:34;11.45;;;10.07;;
1765;SDS011;880;52.452;8.656;2023-11-18T11:56:11;12.10;;;10.38;;
1765;SDS011;880;52.452;8.656;2023-11-18T11:58:47;11.57;;;10.23;;
1765;SDS011;880;52.452;8.656;2023-11-18T12:01:21;11.75;;;9.95;;
1765;SDS011;880;52.452;8.656;2023-11-18T12:04:00;12.30;;;8.95;;
1765;SDS011;880;52.452;8.656;2023-11-18T12:06:47;9.68;;;8.80;;
1765;SDS011;880;52.452;8.656;2023-11-18T12:09:29;9.90;;;8.90;;
1765;SDS011;880;52.452;8.656;2023-11-18T12:12:04;12.07;;;9.73;;
1765;SDS011;880;52.452;8.656;2023-11-18T12:15:10;10.93;;;7.80;;
1765;SDS011;880;52.452;8.656;2023-11-18T12:20:39;11.80;;;9.38;;
1765;SDS011;880;52.452;8.656;2023-11-18T12:23:14;9.07;;;8.13;;
1765;SDS011;880;52.452;8.656;2023-11-18T12:25:42;10.27;;;8.80;;
1765;SDS011;880;52.452;8.656;2023-11-18T12:28:37;9.50;;;8.48;;
1765;SDS011;880;52.452;8.656;2023-11-18T12:31:11;10.23;;;8.88;;
1765;SDS011;880;52.452;8.656;2023-11-18T12:36:54;14.98;;;10.02;;
1765;SDS011;880;52.452;8.656;2023-11-18T12:43:16;10.52;;;8.57;;
1765;SDS011;880;52.452;8.656;2023-11-18T12:46:19;16.77;;;9.60;;
1765;SDS011;880;52.452;8.656;2023-11-18T12:49:16;10.05;;;8.95;;
1765;SDS011;880;52.452;8.656;2023-11-18T12:51:53;11.98;;;10.35;;
1765;SDS011;880;52.452;8.656;2023-11-18T12:54:23;11.02;;;9.98;;
1765;SDS011;880;52.452;8.656;2023-11-18T12:56:56;10.60;;;9.55;;
1765;SDS011;880;52.452;8.656;2023-11-18T12:59:23;17.50;;;10.85;;
1765;SDS011;880;52.452;8.656;2023-11-18T13:01:50;10.45;;;9.30;;
1765;SDS011;880;52.452;8.656;2023-11-18T13:04:23;12.73;;;10.50;;
1765;SDS011;880;52.452;8.656;2023-11-18T13:06:50;13.95;;;12.80;;
1765;SDS011;880;52.452;8.656;2023-11-18T13:09:19;10.07;;;9.18;;
1765;SDS011;880;52.452;8.656;2023-11-18T13:11:57;10.98;;;9.90;;
1765;SDS011;880;52.452;8.656;2023-11-18T13:14:38;13.43;;;10.05;;
1765;SDS011;880;52.452;8.656;2023-11-18T13:17:09;12.80;;;11.60;;
1765;SDS011;880;52.452;8.656;2023-11-18T13:19:39;14.60;;;11.70;;
1765;SDS011;880;52.452;8.656;2023-11-18T13:22:10;13.25;;;12.00;;
1765;SDS011;880;52.452;8.656;2023-11-18T13:24:39;12.25;;;10.82;;
1765;SDS011;880;52.452;8.656;2023-11-18T13:27:15;12.48;;;11.02;;
1765;SDS011;880;52.452;8.656;2023-11-18T13:29:43;11.52;;;10.13;;
1765;SDS011;880;52.452;8.656;2023-11-18T13:32:15;11.65;;;9.73;;
1765;SDS011;880;52.452;8.656;2023-11-18T13:34:42;13.30;;;11.77;;
1765;SDS011;880;52.452;8.656;2023-11-18T13:37:10;11.93;;;10.88;;
1765;SDS011;880;52.452;8.656;2023-11-18T13:39:53;11.07;;;10.02;;
1765;SDS011;880;52.452;8.656;2023-11-18T13:42:24;11.50;;;10.45;;
1765;SDS011;880;52.452;8.656;2023-11-18T13:44:59;11.18;;;10.10;;
1765;SDS011;880;52.452;8.656;2023-11-18T13:47:34;13.20;;;12.13;;
1765;SDS011;880;52.452;8.656;2023-11-18T13:50:06;11.57;;;10.35;;
1765;SDS011;880;52.452;8.656;2023-11-18T13:52:36;13.20;;;12.15;;
1765;SDS011;880;52.452;8.656;2023-11-18T13:57:43;12.90;;;11.75;;
1765;SDS011;880;52.452;8.656;2023-11-18T14:00:11;11.68;;;10.73;;
1765;SDS011;880;52.452;8.656;2023-11-18T14:02:42;10.43;;;9.57;;
1765;SDS011;880;52.452;8.656;2023-11-18T14:05:16;12.18;;;11.02;;
1765;SDS011;880;52.452;8.656;2023-11-18T14:07:47;11.48;;;10.40;;
1765;SDS011;880;52.452;8.656;2023-11-18T14:10:14;12.23;;;11.32;;
1765;SDS011;880;52.452;8.656;2023-11-18T14:13:00;11.57;;;10.48;;
1765;SDS011;880;52.452;8.656;2023-11-18T14:15:29;12.43;;;11.13;;
1765;SDS011;880;52.452;8.656;2023-11-18T14:17:56;12.18;;;10.98;;
1765;SDS011;880;52.452;8.656;2023-11-18T14:20:24;11.48;;;10.30;;
1765;SDS011;880;52.452;8.656;2023-11-18T14:22:51;11.88;;;10.65;;
1765;SDS011;880;52.452;8.656;2023-11-18T14:25:21;12.93;;;11.65;;
1765;SDS011;880;52.452;8.656;2023-11-18T14:27:50;11.25;;;10.27;;
1765;SDS011;880;52.452;8.656;2023-11-18T14:30:17;16.45;;;10.95;;
1765;SDS011;880;52.452;8.656;2023-11-18T14:32:45;13.35;;;10.57;;
1765;SDS011;880;52.452;8.656;2023-11-18T14:35:13;17.50;;;12.85;;
1765;SDS011;880;52.452;8.656;2023-11-18T14:37:44;21.50;;;14.20;;
1765;SDS011;880;52.452;8.656;2023-11-18T14:40:12;31.13;;;15.07;;
1765;SDS011;880;52.452;8.656;2023-11-18T14:42:44;22.02;;;15.43;;
1765;SDS011;880;52.452;8.656;2023-11-18T14:45:14;28.08;;;16.90;;
1765;SDS011;880;52.452;8.656;2023-11-18T14:47:43;23.13;;;16.60;;
1765;SDS011;880;52.452;8.656;2023-11-18T14:50:18;20.15;;;15.80;;
1765;SDS011;880;52.452;8.656;2023-11-18T14:52:47;18.60;;;13.20;;
1765;SDS011;880;52.452;8.656;2023-11-18T14:55:17;16.13;;;12.57;;
1765;SDS011;880;52.452;8.656;2023-11-18T14:57:45;21.00;;;12.02;;
1765;SDS011;880;52.452;8.656;2023-11-18T15:00:13;12.77;;;11.45;;
1765;SDS011;880;52.452;8.656;2023-11-18T15:02:49;11.85;;;9.07;;
1765;SDS011;880;52.452;8.656;2023-11-18T15:05:21;8.63;;;7.80;;
1765;SDS011;880;52.452;8.656;2023-11-18T15:07:49;10.25;;;9.00;;
1765;SDS011;880;52.452;8.656;2023-11-18T15:10:23;9.35;;;8.23;;
1765;SDS011;880;52.452;8.656;2023-11-18T15:12:52;11.65;;;8.10;;
1765;SDS011;880;52.452;8.656;2023-11-18T15:15:28;8.73;;;7.20;;
1765;SDS011;880;52.452;8.656;2023-11-18T15:17:58;9.38;;;8.50;;
1765;SDS011;880;52.452;8.656;2023-11-18T15:20:32;10.38;;;8.63;;
1765;SDS011;880;52.452;8.656;2023-11-18T15:22:59;11.05;;;7.85;;
1765;SDS011;880;52.452;8.656;2023-11-18T15:25:27;7.80;;;7.07;;
1765;SDS011;880;52.452;8.656;2023-11-18T15:27:54;11.57;;;7.82;;
1765;SDS011;880;52.452;8.656;2023-11-18T15:30:22;9.10;;;7.05;;
1765;SDS011;880;52.452;8.656;2023-11-18T15:32:53;8.93;;;7.40;;
1765;SDS011;880;52.452;8.656;2023-11-18T15:35:21;7.45;;;6.72;;
1765;SDS011;880;52.452;8.656;2023-11-18T15:37:48;10.73;;;8.00;;
1765;SDS011;880;52.452;8.656;2023-11-18T15:40:16;8.48;;;7.70;;
1765;SDS011;880;52.452;8.656;2023-11-18T15:42:51;7.75;;;6.75;;
1765;SDS011;880;52.452;8.656;2023-11-18T15:45:18;8.50;;;7.80;;
1765;SDS011;880;52.452;8.656;2023-11-18T15:47:47;8.90;;;7.43;;
1765;SDS011;880;52.452;8.656;2023-11-18T15:50:15;11.05;;;10.02;;
1765;SDS011;880;52.452;8.656;2023-11-18T15:52:43;8.65;;;7.82;;
1765;SDS011;880;52.452;8.656;2023-11-18T15:55:14;12.98;;;9.18;;
1765;SDS011;880;52.452;8.656;2023-11-18T15:57:43;10.38;;;9.05;;
1765;SDS011;880;52.452;8.656;2023-11-18T16:00:22;11.57;;;10.48;;
1765;SDS011;880;52.452;8.656;2023-11-18T16:02:54;15.15;;;8.35;;
1765;SDS011;880;52.452;8.656;2023-11-18T16:05:28;7.68;;;6.80;;
1765;SDS011;880;52.452;8.656;2023-11-18T16:08:01;8.60;;;7.25;;
1765;SDS011;880;52.452;8.656;2023-11-18T16:10:30;10.68;;;8.43;;